createdAt,value
2023-04-03T00:00:18.563Z,3.95
2023-04-03T00:02:45.243Z,4.57
2023-04-03T00:05:11.846Z,4.47
2023-04-03T00:07:38.528Z,3.65
2023-04-03T00:10:05.770Z,3.80
2023-04-03T00:12:32.416Z,3.93
2023-04-03T00:14:59.136Z,4.30
2023-04-03T00:17:26.369Z,4.03
2023-04-03T00:19:52.923Z,3.80
2023-04-03T00:22:19.664Z,3.88
2023-04-03T00:24:46.305Z,4.13
2023-04-03T00:27:12.846Z,4.45
2023-04-03T00:29:39.942Z,3.83
2023-04-03T00:32:06.512Z,4.82
2023-04-03T00:34:33.119Z,4.95
2023-04-03T00:36:59.897Z,4.55
2023-04-03T00:39:27.151Z,6.10
2023-04-03T00:41:54.148Z,5.37
2023-04-03T00:44:43.816Z,4.63
2023-04-03T00:47:14.608Z,4.15
2023-04-03T00:49:42.038Z,4.15
2023-04-03T00:52:12.753Z,4.05
2023-04-03T00:54:41.916Z,4.10
2023-04-03T00:57:09.805Z,4.13
2023-04-03T00:59:41.302Z,4.47
2023-04-03T01:02:08.021Z,4.05
2023-04-03T01:04:40.070Z,3.67
2023-04-03T01:07:13.992Z,4.22
2023-04-03T01:09:41.398Z,4.68
2023-04-03T01:12:20.484Z,4.43
2023-04-03T01:14:54.287Z,3.75
2023-04-03T01:17:41.022Z,3.70
2023-04-03T01:20:34.059Z,5.90
2023-04-03T01:23:10.125Z,5.32
2023-04-03T01:25:48.868Z,4.95
2023-04-03T01:28:23.246Z,3.85
2023-04-03T01:31:28.853Z,4.50
2023-04-03T01:33:56.641Z,3.70
2023-04-03T01:36:30.591Z,4.35
2023-04-03T01:38:59.351Z,4.47
2023-04-03T01:41:26.793Z,4.40
2023-04-03T01:43:58.474Z,6.25
2023-04-03T01:46:25.296Z,4.45
2023-04-03T01:48:52.161Z,4.00
2023-04-03T01:51:18.752Z,4.50
2023-04-03T01:53:45.318Z,3.60
2023-04-03T01:56:12.066Z,3.90
2023-04-03T01:58:39.058Z,3.95
2023-04-03T02:01:06.309Z,4.47
2023-04-03T02:03:33.387Z,4.45
2023-04-03T02:06:01.002Z,4.65
2023-04-03T02:08:27.674Z,4.35
2023-04-03T02:10:54.293Z,4.35
2023-04-03T02:13:21.121Z,3.65
2023-04-03T02:15:48.169Z,3.63
2023-04-03T02:18:18.168Z,4.53
2023-04-03T02:20:44.784Z,4.65
2023-04-03T02:23:11.884Z,3.88
2023-04-03T02:25:38.976Z,4.60
2023-04-03T02:28:06.361Z,4.30
2023-04-03T02:30:33.151Z,3.90
2023-04-03T02:32:59.926Z,4.07
2023-04-03T02:35:27.502Z,4.32
2023-04-03T02:37:56.495Z,3.95
2023-04-03T02:40:23.494Z,4.03
2023-04-03T02:42:50.964Z,3.78
2023-04-03T02:45:19.072Z,4.03
2023-04-03T02:47:45.737Z,4.18
2023-04-03T02:50:12.341Z,4.05
2023-04-03T02:52:39.065Z,4.20
2023-04-03T02:55:06.298Z,4.15
2023-04-03T02:57:33.346Z,4.07
2023-04-03T02:59:59.974Z,3.35
2023-04-03T03:02:26.697Z,5.63
2023-04-03T03:04:53.355Z,5.00
2023-04-03T03:07:19.993Z,4.90
2023-04-03T03:09:46.715Z,4.88
2023-04-03T03:12:13.462Z,3.95
2023-04-03T03:14:40.248Z,4.40
2023-04-03T03:17:06.923Z,4.05
2023-04-03T03:19:34.165Z,4.28
2023-04-03T03:22:00.848Z,4.68
2023-04-03T03:24:27.500Z,4.70
2023-04-03T03:26:54.334Z,4.20
2023-04-03T03:29:20.998Z,4.63
2023-04-03T03:31:47.807Z,4.47
2023-04-03T03:34:15.088Z,3.53
2023-04-03T03:36:41.828Z,3.55
2023-04-03T03:39:08.468Z,4.35
2023-04-03T03:41:35.095Z,4.85
2023-04-03T03:44:03.118Z,4.40
2023-04-03T03:46:32.089Z,4.43
2023-04-03T03:48:58.784Z,4.82
2023-04-03T03:51:25.439Z,3.90
2023-04-03T03:53:52.091Z,4.13
2023-04-03T03:56:20.111Z,4.03
2023-04-03T03:58:46.940Z,5.18
2023-04-03T04:01:14.094Z,4.35
2023-04-03T04:03:45.667Z,3.67
2023-04-03T04:06:17.444Z,3.63
2023-04-03T04:08:44.392Z,3.77
2023-04-03T04:11:12.642Z,4.40
2023-04-03T04:13:40.415Z,4.70
2023-04-03T04:16:08.388Z,4.00
2023-04-03T04:18:35.205Z,4.05
2023-04-03T04:21:01.967Z,3.33
2023-04-03T04:23:29.495Z,3.90
2023-04-03T04:25:58.879Z,3.95
2023-04-03T04:28:26.865Z,3.05
2023-04-03T04:30:55.516Z,3.40
2023-04-03T04:33:25.357Z,2.78
2023-04-03T04:35:52.126Z,5.05
2023-04-03T04:38:20.894Z,5.35
2023-04-03T04:40:49.269Z,4.20
2023-04-03T04:43:18.091Z,6.38
2023-04-03T04:45:47.724Z,4.32
2023-04-03T04:48:17.440Z,4.35
2023-04-03T04:50:44.145Z,3.97
2023-04-03T04:53:10.763Z,4.25
2023-04-03T04:55:37.859Z,8.73
2023-04-03T04:58:05.030Z,5.10
2023-04-03T05:00:31.804Z,3.70
2023-04-03T05:02:58.425Z,4.38
2023-04-03T05:05:25.198Z,4.00
2023-04-03T05:07:52.532Z,9.93
2023-04-03T05:10:19.191Z,12.98
2023-04-03T05:12:47.088Z,22.73
2023-04-03T05:15:17.172Z,16.58
2023-04-03T05:17:44.805Z,10.55
2023-04-03T05:20:14.392Z,17.23
2023-04-03T05:22:42.622Z,6.82
2023-04-03T05:25:11.405Z,5.47
2023-04-03T05:27:40.978Z,3.55
2023-04-03T05:30:09.173Z,3.60
2023-04-03T05:32:37.905Z,4.25
2023-04-03T05:35:19.718Z,4.05
2023-04-03T05:37:49.506Z,3.72
2023-04-03T05:40:18.681Z,3.22
2023-04-03T05:42:47.455Z,3.17
2023-04-03T05:45:16.139Z,5.57
2023-04-03T05:47:42.835Z,3.83
2023-04-03T05:50:09.941Z,3.53
2023-04-03T05:52:41.373Z,3.63
2023-04-03T05:55:08.525Z,3.13
2023-04-03T05:57:35.994Z,3.15
2023-04-03T06:00:06.399Z,3.25
2023-04-03T06:02:41.135Z,3.30
2023-04-03T06:05:11.294Z,2.88
2023-04-03T06:07:38.002Z,3.75
2023-04-03T06:10:05.440Z,3.20
2023-04-03T06:12:32.234Z,3.05
2023-04-03T06:14:58.953Z,3.60
2023-04-03T06:17:25.717Z,3.40
2023-04-03T06:19:53.707Z,3.58
2023-04-03T06:22:20.730Z,2.40
2023-04-03T06:24:47.508Z,2.38
2023-04-03T06:27:14.106Z,3.08
2023-04-03T06:29:40.698Z,2.88
2023-04-03T06:32:07.384Z,2.97
2023-04-03T06:34:33.948Z,3.40
2023-04-03T06:37:00.537Z,2.72
2023-04-03T06:39:27.140Z,3.40
2023-04-03T06:41:53.891Z,2.85
2023-04-03T06:44:28.708Z,4.18
2023-04-03T06:46:55.325Z,2.65
2023-04-03T06:49:22.105Z,3.13
2023-04-03T06:51:48.784Z,2.80
2023-04-03T06:54:15.348Z,2.90
2023-04-03T06:56:42.007Z,3.28
2023-04-03T06:59:08.667Z,3.13
2023-04-03T07:01:35.395Z,2.85
2023-04-03T07:04:01.999Z,2.75
2023-04-03T07:06:28.962Z,3.55
2023-04-03T07:08:56.422Z,2.80
2023-04-03T07:11:23.341Z,3.20
2023-04-03T07:13:50.764Z,2.55
2023-04-03T07:16:19.540Z,2.05
2023-04-03T07:18:46.839Z,2.28
2023-04-03T07:21:13.917Z,2.63
2023-04-03T07:23:40.682Z,2.08
2023-04-03T07:26:07.348Z,2.80
2023-04-03T07:28:34.137Z,2.47
2023-04-03T07:31:07.228Z,2.40
2023-04-03T07:33:34.174Z,2.63
2023-04-03T07:36:00.895Z,3.22
2023-04-03T07:38:27.692Z,3.25
2023-04-03T07:40:54.397Z,2.35
2023-04-03T07:43:22.714Z,3.25
2023-04-03T07:45:50.359Z,3.15
2023-04-03T07:48:18.699Z,2.72
2023-04-03T07:50:45.545Z,2.88
2023-04-03T07:53:12.322Z,3.50
2023-04-03T07:55:39.223Z,3.95
2023-04-03T07:58:05.927Z,3.13
2023-04-03T08:00:32.662Z,3.15
2023-04-03T08:02:59.455Z,3.42
2023-04-03T08:05:26.064Z,2.78
2023-04-03T08:07:52.665Z,2.90
2023-04-03T08:10:19.411Z,3.15
2023-04-03T08:12:49.667Z,2.70
2023-04-03T08:15:16.544Z,3.85
2023-04-03T08:17:43.299Z,3.10
2023-04-03T08:20:11.486Z,3.40
2023-04-03T08:22:38.453Z,3.97
2023-04-03T08:25:05.369Z,3.70
2023-04-03T08:27:34.370Z,3.60
2023-04-03T08:30:00.949Z,3.25
2023-04-03T08:32:27.886Z,3.03
2023-04-03T08:34:54.703Z,3.88
2023-04-03T08:37:21.439Z,2.78
2023-04-03T08:39:48.164Z,2.88
2023-04-03T08:42:35.850Z,2.75
2023-04-03T08:45:11.329Z,3.13
2023-04-03T08:47:53.937Z,3.10
2023-04-03T08:50:26.123Z,3.22
2023-04-03T08:53:00.311Z,2.80
2023-04-03T08:55:35.741Z,2.33
2023-04-03T08:58:06.618Z,3.00
2023-04-03T09:00:45.688Z,3.10
2023-04-03T09:03:17.875Z,3.20
2023-04-03T09:05:51.935Z,3.15
2023-04-03T09:08:29.394Z,2.92
2023-04-03T09:11:19.683Z,3.33
2023-04-03T09:14:03.530Z,3.05
2023-04-03T09:16:50.456Z,2.67
2023-04-03T09:19:32.515Z,3.22
2023-04-03T09:22:21.959Z,2.58
2023-04-03T09:24:56.894Z,2.53
2023-04-03T09:27:23.609Z,2.80
2023-04-03T09:29:55.868Z,2.88
2023-04-03T09:32:35.246Z,3.40
2023-04-03T09:35:21.873Z,3.63
2023-04-03T09:37:54.737Z,3.20
2023-04-03T09:40:27.437Z,3.10
2023-04-03T09:43:01.227Z,3.20
2023-04-03T09:45:31.653Z,2.85
2023-04-03T09:48:15.460Z,4.50
2023-04-03T09:50:51.860Z,2.90
2023-04-03T09:53:29.120Z,4.07
2023-04-03T09:55:56.056Z,3.85
2023-04-03T09:58:46.720Z,13.68
2023-04-03T10:01:38.017Z,5.88
2023-04-03T10:04:12.166Z,3.28
2023-04-03T10:06:42.308Z,4.53
2023-04-03T10:09:25.936Z,3.90
2023-04-03T10:12:04.128Z,3.75
2023-04-03T10:14:30.810Z,5.25
2023-04-03T10:17:10.428Z,5.18
2023-04-03T10:19:44.849Z,3.95
2023-04-03T10:22:19.790Z,3.33
2023-04-03T10:25:02.151Z,3.08
2023-04-03T10:27:59.721Z,2.50
2023-04-03T10:30:35.590Z,1.98
2023-04-03T10:33:19.369Z,1.77
2023-04-03T10:36:04.219Z,2.00
2023-04-03T10:38:43.809Z,2.45
2023-04-03T10:41:33.045Z,3.25
2023-04-03T10:44:46.349Z,2.30
2023-04-03T10:47:32.709Z,2.42
2023-04-03T10:50:32.550Z,2.70
2023-04-03T10:53:30.642Z,2.78
2023-04-03T10:56:08.610Z,3.08
2023-04-03T10:58:44.223Z,2.78
2023-04-03T11:01:17.571Z,2.67
2023-04-03T11:03:52.149Z,3.33
2023-04-03T11:06:23.387Z,2.70
2023-04-03T11:08:55.052Z,2.83
2023-04-03T11:11:37.171Z,2.95
2023-04-03T11:14:12.137Z,2.90
2023-04-03T11:16:53.352Z,2.63
2023-04-03T11:19:28.036Z,3.25
2023-04-03T11:22:02.775Z,2.83
2023-04-03T11:24:33.619Z,2.47
2023-04-03T11:27:02.813Z,2.42
2023-04-03T11:29:36.315Z,1.95
2023-04-03T11:32:18.169Z,2.05
2023-04-03T11:34:50.200Z,1.67
2023-04-03T11:37:35.272Z,2.30
2023-04-03T11:40:07.236Z,1.70
2023-04-03T11:42:43.027Z,2.38
2023-04-03T11:45:30.232Z,1.95
2023-04-03T11:48:10.183Z,1.65
2023-04-03T11:50:47.118Z,1.98
2023-04-03T11:53:13.651Z,2.50
2023-04-03T11:55:48.910Z,1.70
2023-04-03T11:58:17.410Z,1.92
2023-04-03T12:01:01.188Z,1.88
2023-04-03T12:03:35.377Z,1.90
2023-04-03T12:06:07.790Z,1.80
2023-04-03T12:08:34.406Z,1.77
2023-04-03T12:11:10.059Z,1.58
2023-04-03T12:13:55.140Z,1.20
2023-04-03T12:16:23.138Z,1.95
2023-04-03T12:18:49.840Z,2.03
2023-04-03T12:21:18.927Z,2.42
2023-04-03T12:24:08.916Z,1.40
2023-04-03T12:26:49.805Z,2.10
2023-04-03T12:29:28.285Z,1.90
2023-04-03T12:32:11.000Z,1.70
2023-04-03T12:34:44.328Z,1.67
2023-04-03T12:37:44.264Z,1.50
2023-04-03T12:40:39.292Z,1.30
2023-04-03T12:43:05.940Z,1.90
2023-04-03T12:45:45.244Z,1.95
2023-04-03T12:48:16.854Z,1.60
2023-04-03T12:50:47.543Z,1.38
2023-04-03T12:53:19.058Z,1.33
2023-04-03T12:55:45.873Z,1.90
2023-04-03T12:58:38.863Z,1.45
2023-04-03T13:01:13.447Z,1.40
2023-04-03T13:03:44.448Z,1.55
2023-04-03T13:06:22.194Z,1.80
2023-04-03T13:08:57.757Z,1.35
2023-04-03T13:11:26.413Z,2.47
2023-04-03T13:14:00.838Z,2.00
2023-04-03T13:16:28.061Z,2.00
2023-04-03T13:18:56.429Z,1.67
2023-04-03T13:21:27.495Z,1.90
2023-04-03T13:24:07.628Z,1.25
2023-04-03T13:26:41.418Z,1.87
2023-04-03T13:29:30.889Z,1.83
2023-04-03T13:31:59.565Z,2.30
2023-04-03T13:34:37.969Z,1.45
2023-04-03T13:37:05.707Z,1.10
2023-04-03T13:39:37.766Z,1.33
2023-04-03T13:42:23.499Z,1.17
2023-04-03T13:44:50.629Z,2.10
2023-04-03T13:47:19.502Z,1.80
2023-04-03T13:50:01.901Z,1.40
2023-04-03T13:52:35.918Z,1.40
2023-04-03T13:55:24.552Z,1.25
2023-04-03T13:58:20.682Z,2.22
2023-04-03T14:00:47.338Z,2.30
2023-04-03T14:03:41.552Z,1.00
2023-04-03T14:06:13.624Z,1.25
2023-04-03T14:08:43.467Z,1.58
2023-04-03T14:11:16.514Z,0.80
2023-04-03T14:13:44.606Z,0.90
2023-04-03T14:18:45.462Z,1.02
2023-04-03T14:21:13.961Z,1.40
2023-04-03T14:23:40.900Z,2.20
2023-04-03T14:26:22.147Z,1.73
2023-04-03T14:28:51.531Z,1.00
2023-04-03T14:31:19.035Z,0.98
2023-04-03T14:33:46.712Z,0.98
2023-04-03T14:36:25.909Z,1.00
2023-04-03T14:38:53.414Z,0.85
2023-04-03T14:41:22.900Z,0.98
2023-04-03T14:43:50.762Z,0.85
2023-04-03T14:46:55.515Z,1.17
2023-04-03T14:49:26.623Z,0.80
2023-04-03T14:51:53.458Z,0.95
2023-04-03T14:54:23.087Z,0.77
2023-04-03T14:56:49.756Z,0.77
2023-04-03T14:59:16.537Z,1.00
2023-04-03T15:01:43.120Z,1.00
2023-04-03T15:04:21.601Z,0.75
2023-04-03T15:06:49.949Z,0.63
2023-04-03T15:11:47.407Z,0.88
2023-04-03T15:14:16.770Z,1.30
2023-04-03T15:16:51.326Z,1.13
2023-04-03T15:19:17.954Z,0.90
2023-04-03T15:21:44.814Z,0.80
2023-04-03T15:24:11.480Z,0.70
2023-04-03T15:26:38.654Z,0.90
2023-04-03T15:29:05.949Z,0.80
2023-04-03T15:31:33.011Z,0.90
2023-04-03T15:34:00.141Z,0.90
2023-04-03T15:36:34.090Z,1.00
2023-04-03T15:39:01.675Z,7.03
2023-04-03T15:41:28.316Z,18.38
2023-04-03T15:43:54.938Z,14.88
2023-04-03T15:46:21.650Z,8.35
2023-04-03T15:48:48.320Z,1.55
2023-04-03T15:51:15.109Z,1.58
2023-04-03T15:53:41.770Z,2.08
2023-04-03T15:56:08.552Z,3.00
2023-04-03T15:58:35.194Z,4.18
2023-04-03T16:01:03.229Z,2.75
2023-04-03T16:03:30.816Z,3.78
2023-04-03T16:05:57.841Z,2.75
2023-04-03T16:08:24.520Z,1.30
2023-04-03T16:10:51.382Z,1.25
2023-04-03T16:13:17.933Z,1.45
2023-04-03T16:15:44.690Z,1.15
2023-04-03T16:18:11.545Z,1.20
2023-04-03T16:20:38.574Z,0.82
2023-04-03T16:23:05.914Z,0.70
2023-04-03T16:25:32.690Z,0.75
2023-04-03T16:27:59.344Z,0.68
2023-04-03T16:30:26.679Z,1.77
2023-04-03T16:32:53.439Z,0.83
2023-04-03T16:35:20.267Z,1.10
2023-04-03T16:37:46.992Z,1.20
2023-04-03T16:40:13.957Z,1.35
2023-04-03T16:42:40.743Z,1.33
2023-04-03T16:45:08.346Z,0.70
2023-04-03T16:47:35.403Z,1.38
2023-04-03T16:50:02.095Z,1.33
2023-04-03T16:52:28.714Z,1.10
2023-04-03T16:54:55.397Z,1.00
2023-04-03T16:57:23.507Z,0.88
2023-04-03T17:02:17.533Z,0.90
2023-04-03T17:04:44.198Z,1.00
2023-04-03T17:07:10.824Z,1.30
2023-04-03T17:09:37.471Z,1.30
2023-04-03T17:12:04.077Z,1.05
2023-04-03T17:14:30.771Z,1.27
2023-04-03T17:16:57.439Z,1.35
2023-04-03T17:19:24.092Z,1.00
2023-04-03T17:21:50.705Z,1.15
2023-04-03T17:24:18.053Z,2.78
2023-04-03T17:26:44.729Z,1.38
2023-04-03T17:29:11.376Z,0.70
2023-04-03T17:31:38.163Z,1.13
2023-04-03T17:34:04.824Z,2.42
2023-04-03T17:36:33.832Z,1.05
2023-04-03T17:39:01.148Z,1.08
2023-04-03T17:41:27.764Z,0.90
2023-04-03T17:43:54.376Z,0.90
2023-04-03T17:46:20.943Z,0.85
2023-04-03T17:48:47.555Z,1.65
2023-04-03T17:51:16.776Z,1.10
2023-04-03T17:53:43.652Z,0.93
2023-04-03T17:56:13.889Z,1.40
2023-04-03T17:58:40.548Z,1.00
2023-04-03T18:01:19.483Z,1.27
2023-04-03T18:03:47.082Z,1.58
2023-04-03T18:06:19.850Z,1.55
2023-04-03T18:08:50.064Z,1.00
2023-04-03T18:11:17.924Z,0.98
2023-04-03T18:13:46.140Z,1.50
2023-04-03T18:16:13.824Z,0.90
2023-04-03T18:18:40.937Z,1.02
2023-04-03T18:21:10.725Z,1.00
2023-04-03T18:23:41.935Z,1.08
2023-04-03T18:26:12.323Z,1.10
2023-04-03T18:28:42.703Z,1.08
2023-04-03T18:31:10.537Z,1.00
2023-04-03T18:33:37.573Z,1.17
2023-04-03T18:36:05.420Z,0.82
2023-04-03T18:38:32.151Z,1.05
2023-04-03T18:41:00.440Z,0.70
2023-04-03T18:45:54.221Z,0.98
2023-04-03T18:48:20.985Z,0.77
2023-04-03T18:50:48.882Z,0.98
2023-04-03T18:53:15.546Z,1.17
2023-04-03T18:55:42.347Z,1.10
2023-04-03T18:58:09.197Z,1.38
2023-04-03T19:00:35.947Z,1.38
2023-04-03T19:03:02.711Z,1.23
2023-04-03T19:05:29.457Z,1.02
2023-04-03T19:07:56.118Z,1.10
2023-04-03T19:10:22.983Z,0.85
2023-04-03T19:12:51.169Z,1.30
2023-04-03T19:17:45.988Z,2.65
2023-04-03T19:20:13.649Z,1.00
2023-04-03T19:22:40.927Z,1.20
2023-04-03T19:25:09.776Z,1.40
2023-04-03T19:27:37.449Z,1.13
2023-04-03T19:30:09.565Z,1.13
2023-04-03T19:32:36.258Z,1.55
2023-04-03T19:35:03.235Z,1.35
2023-04-03T19:37:29.873Z,1.30
2023-04-03T19:39:56.468Z,1.40
2023-04-03T19:42:23.211Z,1.20
2023-04-03T19:44:51.171Z,1.20
2023-04-03T19:47:17.829Z,1.17
2023-04-03T19:49:44.370Z,1.60
2023-04-03T19:52:11.232Z,1.73
2023-04-03T19:54:37.837Z,1.13
2023-04-03T19:57:04.505Z,1.20
2023-04-03T19:59:31.218Z,1.25
2023-04-03T20:01:57.930Z,1.20
2023-04-03T20:04:24.603Z,1.48
2023-04-03T20:06:51.250Z,1.20
2023-04-03T20:09:17.821Z,1.10
2023-04-03T20:11:45.220Z,1.80
2023-04-03T20:14:11.994Z,1.30
2023-04-03T20:16:38.596Z,1.40
2023-04-03T20:19:05.293Z,1.58
2023-04-03T20:21:33.756Z,1.65
2023-04-03T20:24:01.904Z,1.65
2023-04-03T20:31:25.595Z,1.08
2023-04-03T20:33:52.432Z,1.20
2023-04-03T20:36:19.634Z,1.00
2023-04-03T20:38:47.160Z,1.02
2023-04-03T20:41:15.458Z,1.15
2023-04-03T20:43:43.513Z,1.08
2023-04-03T20:46:10.740Z,1.15
2023-04-03T20:48:37.591Z,1.73
2023-04-03T20:51:16.560Z,1.83
2023-04-03T20:53:43.298Z,1.35
2023-04-03T20:56:10.012Z,1.95
2023-04-03T20:58:37.898Z,1.90
2023-04-03T21:01:16.829Z,1.80
2023-04-03T21:03:43.912Z,1.73
2023-04-03T21:06:48.383Z,1.65
2023-04-03T21:09:52.414Z,1.33
2023-04-03T21:12:56.806Z,1.45
2023-04-03T21:15:48.364Z,2.50
2023-04-03T21:18:58.337Z,1.75
2023-04-03T21:21:26.493Z,1.80
2023-04-03T21:23:54.943Z,1.80
2023-04-03T21:26:22.623Z,1.40
2023-04-03T21:28:52.829Z,1.58
2023-04-03T21:31:22.978Z,1.58
2023-04-03T21:33:50.404Z,1.30
2023-04-03T21:36:17.119Z,1.35
2023-04-03T21:38:43.709Z,1.30
2023-04-03T21:41:10.246Z,1.05
2023-04-03T21:43:36.824Z,1.10
2023-04-03T21:46:03.476Z,1.75
2023-04-03T21:48:30.164Z,1.42
2023-04-03T21:51:05.878Z,1.77
2023-04-03T21:53:32.560Z,1.30
2023-04-03T21:55:59.205Z,1.60
2023-04-03T21:58:32.422Z,1.33
2023-04-03T22:01:32.130Z,0.93
2023-04-03T22:03:59.295Z,1.08
2023-04-03T22:06:26.270Z,1.50
2023-04-03T22:08:52.965Z,1.17
2023-04-03T22:11:19.632Z,1.25
2023-04-03T22:13:46.197Z,1.65
2023-04-03T22:16:12.841Z,1.90
2023-04-03T22:18:39.569Z,1.35
2023-04-03T22:21:06.585Z,1.67
2023-04-03T22:23:33.187Z,1.42
2023-04-03T22:26:08.100Z,1.40
2023-04-03T22:28:38.381Z,1.40
2023-04-03T22:31:06.764Z,1.30
2023-04-03T22:33:37.395Z,1.40
2023-04-03T22:36:05.380Z,1.48
2023-04-03T22:38:32.333Z,1.48
2023-04-03T22:41:00.373Z,1.40
2023-04-03T22:43:28.331Z,1.52
2023-04-03T22:45:55.940Z,1.70
2023-04-03T22:48:23.685Z,1.00
2023-04-03T22:50:51.240Z,1.35
2023-04-03T22:53:18.430Z,1.65
2023-04-03T22:55:53.306Z,0.87
2023-04-03T22:58:19.925Z,1.45
2023-04-03T23:00:46.675Z,1.40
2023-04-03T23:03:13.419Z,1.20
2023-04-03T23:05:40.051Z,2.60
2023-04-03T23:08:06.636Z,1.60
2023-04-03T23:10:33.308Z,1.52
2023-04-03T23:12:59.883Z,1.40
2023-04-03T23:15:26.539Z,1.83
2023-04-03T23:17:53.301Z,1.80
2023-04-03T23:20:19.973Z,1.20
2023-04-03T23:22:46.659Z,1.67
2023-04-03T23:25:13.322Z,1.48
2023-04-03T23:27:40.018Z,1.50
2023-04-03T23:30:07.327Z,1.42
2023-04-03T23:32:34.002Z,2.80
2023-04-03T23:35:00.731Z,1.33
2023-04-03T23:37:27.365Z,2.05
2023-04-03T23:39:54.217Z,1.35
2023-04-03T23:42:20.928Z,1.48
2023-04-03T23:44:47.691Z,1.27
2023-04-03T23:47:14.396Z,1.42
2023-04-03T23:49:41.068Z,1.23
2023-04-03T23:52:07.646Z,1.08
2023-04-03T23:54:34.298Z,1.02
2023-04-03T23:57:01.168Z,1.40
2023-04-03T23:59:28.030Z,1.40
